sensor_id;sensor_type;location;lat;lon;timestamp;pressure;altitude;pressure_sealevel;temperature;humidity
6216;BME280;3141;49.234;9.326;2024-01-06T00:00:13;98462.59;;;7.77;81.08
6216;BME280;3141;49.234;9.326;2024-01-06T00:00:57;98455.19;;;7.81;80.95
6216;BME280;3141;49.234;9.326;2024-01-06T00:01:39;98460.47;;;7.81;80.88
6216;BME280;3141;49.234;9.326;2024-01-06T00:02:22;98462.28;;;7.72;80.99
6216;BME280;3141;49.234;9.326;2024-01-06T00:03:04;98461.13;;;7.83;80.66
6216;BME280;3141;49.234;9.326;2024-01-06T00:03:46;98459.78;;;7.79;80.43
6216;BME280;3141;49.234;9.326;2024-01-06T00:04:29;98465.06;;;7.79;81.02
6216;BME280;3141;49.234;9.326;2024-01-06T00:05:11;98458.84;;;7.80;81.18
6216;BME280;3141;49.234;9.326;2024-01-06T00:05:53;98467.88;;;7.77;80.89
6216;BME280;3141;49.234;9.326;2024-01-06T00:06:35;98465.88;;;7.79;80.59
6216;BME280;3141;49.234;9.326;2024-01-06T00:07:18;98467.69;;;7.79;80.63
6216;BME280;3141;49.234;9.326;2024-01-06T00:08:00;98464.56;;;7.83;80.45
6216;BME280;3141;49.234;9.326;2024-01-06T00:08:42;98462.44;;;7.79;80.44
6216;BME280;3141;49.234;9.326;2024-01-06T00:09:25;98470.31;;;7.79;80.42
6216;BME280;3141;49.234;9.326;2024-01-06T00:10:07;98461.47;;;7.80;80.51
6216;BME280;3141;49.234;9.326;2024-01-06T00:10:50;98463.13;;;7.73;80.51
6216;BME280;3141;49.234;9.326;2024-01-06T00:11:33;98465.41;;;7.76;80.47
6216;BME280;3141;49.234;9.326;2024-01-06T00:12:15;98467.06;;;7.69;80.55
6216;BME280;3141;49.234;9.326;2024-01-06T00:12:57;98463.44;;;7.70;80.73
6216;BME280;3141;49.234;9.326;2024-01-06T00:13:39;98470.50;;;7.61;81.14
6216;BME280;3141;49.234;9.326;2024-01-06T00:14:22;98470.69;;;7.68;81.21
6216;BME280;3141;49.234;9.326;2024-01-06T00:15:05;98462.78;;;7.60;81.58
6216;BME280;3141;49.234;9.326;2024-01-06T00:15:47;98466.06;;;7.62;81.74
6216;BME280;3141;49.234;9.326;2024-01-06T00:16:29;98469.69;;;7.69;81.42
6216;BME280;3141;49.234;9.326;2024-01-06T00:17:12;98469.84;;;7.67;81.38
6216;BME280;3141;49.234;9.326;2024-01-06T00:17:54;98469.22;;;7.57;81.89
6216;BME280;3141;49.234;9.326;2024-01-06T00:18:36;98463.44;;;7.70;81.30
6216;BME280;3141;49.234;9.326;2024-01-06T00:19:19;98466.72;;;7.72;81.42
6216;BME280;3141;49.234;9.326;2024-01-06T00:20:01;98467.38;;;7.74;81.21
6216;BME280;3141;49.234;9.326;2024-01-06T00:20:44;98463.44;;;7.78;80.84
6216;BME280;3141;49.234;9.326;2024-01-06T00:21:26;98465.72;;;7.81;80.63
6216;BME280;3141;49.234;9.326;2024-01-06T00:22:09;98468.53;;;7.79;80.50
6216;BME280;3141;49.234;9.326;2024-01-06T00:22:51;98464.09;;;7.80;80.46
6216;BME280;3141;49.234;9.326;2024-01-06T00:23:33;98462.78;;;7.76;80.42
6216;BME280;3141;49.234;9.326;2024-01-06T00:24:16;98463.44;;;7.78;80.33
6216;BME280;3141;49.234;9.326;2024-01-06T00:24:58;98461.78;;;7.77;80.35
6216;BME280;3141;49.234;9.326;2024-01-06T00:25:40;98459.97;;;7.77;80.44
6216;BME280;3141;49.234;9.326;2024-01-06T00:26:23;98454.53;;;7.79;80.17
6216;BME280;3141;49.234;9.326;2024-01-06T00:27:06;98463.75;;;7.83;80.24
6216;BME280;3141;49.234;9.326;2024-01-06T00:27:49;98465.06;;;7.79;80.16
6216;BME280;3141;49.234;9.326;2024-01-06T00:28:31;98464.75;;;7.74;80.63
6216;BME280;3141;49.234;9.326;2024-01-06T00:29:14;98465.56;;;7.74;80.45
6216;BME280;3141;49.234;9.326;2024-01-06T00:29:56;98467.03;;;7.77;80.41
6216;BME280;3141;49.234;9.326;2024-01-06T00:30:38;98467.19;;;7.75;80.31
6216;BME280;3141;49.234;9.326;2024-01-06T00:31:21;98465.22;;;7.77;80.41
6216;BME280;3141;49.234;9.326;2024-01-06T00:32:03;98472.47;;;7.75;80.58
6216;BME280;3141;49.234;9.326;2024-01-06T00:32:46;98473.28;;;7.76;80.44
6216;BME280;3141;49.234;9.326;2024-01-06T00:33:28;98471.97;;;7.72;80.45
6216;BME280;3141;49.234;9.326;2024-01-06T00:34:10;98475.25;;;7.74;80.36
6216;BME280;3141;49.234;9.326;2024-01-06T00:34:53;98472.13;;;7.78;80.34
6216;BME280;3141;49.234;9.326;2024-01-06T00:35:36;98471.63;;;7.75;80.23
6216;BME280;3141;49.234;9.326;2024-01-06T00:36:18;98469.00;;;7.75;80.39
6216;BME280;3141;49.234;9.326;2024-01-06T00:37:00;98470.34;;;7.71;80.26
6216;BME280;3141;49.234;9.326;2024-01-06T00:37:43;98476.91;;;7.75;80.23
6216;BME280;3141;49.234;9.326;2024-01-06T00:38:25;98479.53;;;7.75;80.11
6216;BME280;3141;49.234;9.326;2024-01-06T00:39:07;98480.88;;;7.71;80.26
6216;BME280;3141;49.234;9.326;2024-01-06T00:39:50;98473.63;;;7.65;80.38
6216;BME280;3141;49.234;9.326;2024-01-06T00:40:32;98471.00;;;7.65;80.43
6216;BME280;3141;49.234;9.326;2024-01-06T00:41:14;98478.72;;;7.66;80.32
6216;BME280;3141;49.234;9.326;2024-01-06T00:41:57;98474.97;;;7.61;80.40
6216;BME280;3141;49.234;9.326;2024-01-06T00:42:39;98481.19;;;7.60;80.64
6216;BME280;3141;49.234;9.326;2024-01-06T00:43:21;98478.91;;;7.57;80.96
6216;BME280;3141;49.234;9.326;2024-01-06T00:44:04;98477.59;;;7.53;81.13
6216;BME280;3141;49.234;9.326;2024-01-06T00:44:46;98478.56;;;7.60;81.12
6216;BME280;3141;49.234;9.326;2024-01-06T00:45:29;98484.50;;;7.54;81.11
6216;BME280;3141;49.234;9.326;2024-01-06T00:46:12;98476.94;;;7.59;81.42
6216;BME280;3141;49.234;9.326;2024-01-06T00:46:55;98476.25;;;7.65;80.98
6216;BME280;3141;49.234;9.326;2024-01-06T00:47:37;98478.91;;;7.73;80.69
6216;BME280;3141;49.234;9.326;2024-01-06T00:48:20;98483.50;;;7.71;80.49
6216;BME280;3141;49.234;9.326;2024-01-06T00:49:02;98480.88;;;7.71;80.53
6216;BME280;3141;49.234;9.326;2024-01-06T00:49:45;98477.38;;;7.78;80.42
6216;BME280;3141;49.234;9.326;2024-01-06T00:50:28;98484.00;;;7.74;80.90
6216;BME280;3141;49.234;9.326;2024-01-06T00:51:10;98482.66;;;7.78;80.32
6216;BME280;3141;49.234;9.326;2024-01-06T00:51:52;98477.72;;;7.75;80.14
6216;BME280;3141;49.234;9.326;2024-01-06T00:52:35;98482.16;;;7.75;80.47
6216;BME280;3141;49.234;9.326;2024-01-06T00:53:17;98487.41;;;7.75;80.40
6216;BME280;3141;49.234;9.326;2024-01-06T00:53:59;98485.97;;;7.72;80.16
6216;BME280;3141;49.234;9.326;2024-01-06T00:54:42;98484.78;;;7.75;80.18
6216;BME280;3141;49.234;9.326;2024-01-06T00:55:24;98482.16;;;7.75;80.19
6216;BME280;3141;49.234;9.326;2024-01-06T00:56:07;98489.91;;;7.76;80.23
6216;BME280;3141;49.234;9.326;2024-01-06T00:56:50;98489.06;;;7.76;79.84
6216;BME280;3141;49.234;9.326;2024-01-06T00:57:32;98488.25;;;7.75;80.02
6216;BME280;3141;49.234;9.326;2024-01-06T00:58:14;98484.97;;;7.73;80.07
6216;BME280;3141;49.234;9.326;2024-01-06T00:58:56;98482.50;;;7.72;80.07
6216;BME280;3141;49.234;9.326;2024-01-06T00:59:39;98489.41;;;7.73;80.52
6216;BME280;3141;49.234;9.326;2024-01-06T01:00:21;98486.63;;;7.74;80.31
6216;BME280;3141;49.234;9.326;2024-01-06T01:01:04;98489.56;;;7.79;80.17
6216;BME280;3141;49.234;9.326;2024-01-06T01:01:47;98496.97;;;7.76;80.29
6216;BME280;3141;49.234;9.326;2024-01-06T01:02:29;98493.50;;;7.75;80.09
6216;BME280;3141;49.234;9.326;2024-01-06T01:03:11;98493.50;;;7.75;80.20
6216;BME280;3141;49.234;9.326;2024-01-06T01:03:54;98488.59;;;7.72;80.44
6216;BME280;3141;49.234;9.326;2024-01-06T01:04:36;98492.69;;;7.75;80.26
6216;BME280;3141;49.234;9.326;2024-01-06T01:05:19;98493.16;;;7.78;80.06
6216;BME280;3141;49.234;9.326;2024-01-06T01:06:01;98499.25;;;7.79;79.90
6216;BME280;3141;49.234;9.326;2024-01-06T01:06:43;98497.81;;;7.76;79.94
6216;BME280;3141;49.234;9.326;2024-01-06T01:07:26;98493.50;;;7.59;80.35
6216;BME280;3141;49.234;9.326;2024-01-06T01:08:09;98500.28;;;7.54;80.81
6216;BME280;3141;49.234;9.326;2024-01-06T01:08:51;98492.88;;;7.49;81.20
6216;BME280;3141;49.234;9.326;2024-01-06T01:09:34;98500.59;;;7.51;81.10
6216;BME280;3141;49.234;9.326;2024-01-06T01:10:17;98496.81;;;7.53;81.22
6216;BME280;3141;49.234;9.326;2024-01-06T01:10:59;98505.38;;;7.55;81.05
6216;BME280;3141;49.234;9.326;2024-01-06T01:11:41;98500.44;;;7.44;81.59
6216;BME280;3141;49.234;9.326;2024-01-06T01:12:24;98503.22;;;7.43;81.86
6216;BME280;3141;49.234;9.326;2024-01-06T01:13:06;98499.63;;;7.44;81.49
6216;BME280;3141;49.234;9.326;2024-01-06T01:13:49;98506.69;;;7.51;81.70
6216;BME280;3141;49.234;9.326;2024-01-06T01:14:31;98513.59;;;7.52;81.27
6216;BME280;3141;49.234;9.326;2024-01-06T01:15:13;98512.63;;;7.45;81.46
6216;BME280;3141;49.234;9.326;2024-01-06T01:15:56;98515.72;;;7.49;81.53
6216;BME280;3141;49.234;9.326;2024-01-06T01:16:38;98519.34;;;7.48;81.63
6216;BME280;3141;49.234;9.326;2024-01-06T01:17:20;98522.78;;;7.48;81.48
6216;BME280;3141;49.234;9.326;2024-01-06T01:18:03;98523.94;;;7.54;81.26
6216;BME280;3141;49.234;9.326;2024-01-06T01:18:45;98523.59;;;7.57;81.07
6216;BME280;3141;49.234;9.326;2024-01-06T01:19:27;98523.94;;;7.62;80.74
6216;BME280;3141;49.234;9.326;2024-01-06T01:20:10;98527.72;;;7.67;80.51
6216;BME280;3141;49.234;9.326;2024-01-06T01:20:52;98524.59;;;7.72;80.17
6216;BME280;3141;49.234;9.326;2024-01-06T01:21:35;98530.34;;;7.67;80.44
6216;BME280;3141;49.234;9.326;2024-01-06T01:22:17;98524.09;;;7.68;80.17
6216;BME280;3141;49.234;9.326;2024-01-06T01:22:59;98530.00;;;7.70;80.08
6216;BME280;3141;49.234;9.326;2024-01-06T01:23:42;98533.47;;;7.71;80.21
6216;BME280;3141;49.234;9.326;2024-01-06T01:24:24;98522.59;;;7.74;79.96
6216;BME280;3141;49.234;9.326;2024-01-06T01:25:07;98521.78;;;7.73;79.98
6216;BME280;3141;49.234;9.326;2024-01-06T01:25:50;98532.81;;;7.69;80.06
6216;BME280;3141;49.234;9.326;2024-01-06T01:26:32;98530.84;;;7.71;79.91
6216;BME280;3141;49.234;9.326;2024-01-06T01:27:14;98530.19;;;7.61;80.26
6216;BME280;3141;49.234;9.326;2024-01-06T01:27:57;98531.84;;;7.54;80.64
6216;BME280;3141;49.234;9.326;2024-01-06T01:28:39;98534.78;;;7.59;80.85
6216;BME280;3141;49.234;9.326;2024-01-06T01:29:21;98531.16;;;7.60;80.67
6216;BME280;3141;49.234;9.326;2024-01-06T01:30:04;98534.44;;;7.62;80.30
6216;BME280;3141;49.234;9.326;2024-01-06T01:30:47;98533.78;;;7.60;80.52
6216;BME280;3141;49.234;9.326;2024-01-06T01:31:29;98537.59;;;7.57;80.25
6216;BME280;3141;49.234;9.326;2024-01-06T01:32:12;98540.53;;;7.62;80.49
6216;BME280;3141;49.234;9.326;2024-01-06T01:32:54;98524.44;;;7.65;80.29
6216;BME280;3141;49.234;9.326;2024-01-06T01:33:37;98534.78;;;7.67;80.20
6216;BME280;3141;49.234;9.326;2024-01-06T01:34:19;98536.25;;;7.61;80.16
6216;BME280;3141;49.234;9.326;2024-01-06T01:35:01;98540.06;;;7.59;80.43
6216;BME280;3141;49.234;9.326;2024-01-06T01:35:44;98541.34;;;7.63;80.18
6216;BME280;3141;49.234;9.326;2024-01-06T01:36:26;98541.34;;;7.63;80.17
6216;BME280;3141;49.234;9.326;2024-01-06T01:37:08;98533.78;;;7.60;80.22
6216;BME280;3141;49.234;9.326;2024-01-06T01:37:51;98537.09;;;7.62;80.38
6216;BME280;3141;49.234;9.326;2024-01-06T01:38:33;98537.75;;;7.64;80.24
6216;BME280;3141;49.234;9.326;2024-01-06T01:39:15;98541.34;;;7.63;79.91
6216;BME280;3141;49.234;9.326;2024-01-06T01:39:57;98544.81;;;7.63;80.20
6216;BME280;3141;49.234;9.326;2024-01-06T01:40:40;98543.84;;;7.64;80.17
6216;BME280;3141;49.234;9.326;2024-01-06T01:41:22;98543.84;;;7.64;80.04
6216;BME280;3141;49.234;9.326;2024-01-06T01:42:04;98539.38;;;7.65;79.69
6216;BME280;3141;49.234;9.326;2024-01-06T01:42:47;98539.38;;;7.65;79.63
6216;BME280;3141;49.234;9.326;2024-01-06T01:43:29;98546.59;;;7.63;79.95
6216;BME280;3141;49.234;9.326;2024-01-06T01:44:12;98548.44;;;7.62;79.75
6216;BME280;3141;49.234;9.326;2024-01-06T01:44:55;98546.59;;;7.63;79.82
6216;BME280;3141;49.234;9.326;2024-01-06T01:45:38;98551.06;;;7.62;79.93
6216;BME280;3141;49.234;9.326;2024-01-06T01:46:20;98549.75;;;7.58;79.87
6216;BME280;3141;49.234;9.326;2024-01-06T01:47:04;98549.59;;;7.52;80.36
6216;BME280;3141;49.234;9.326;2024-01-06T01:47:46;98552.38;;;7.50;80.54
6216;BME280;3141;49.234;9.326;2024-01-06T01:48:29;98544.31;;;7.52;80.66
6216;BME280;3141;49.234;9.326;2024-01-06T01:49:13;98549.25;;;7.47;81.15
6216;BME280;3141;49.234;9.326;2024-01-06T01:49:55;98551.22;;;7.45;80.79
6216;BME280;3141;49.234;9.326;2024-01-06T01:50:38;98546.97;;;7.44;81.14
6216;BME280;3141;49.234;9.326;2024-01-06T01:51:21;98553.50;;;7.48;80.84
6216;BME280;3141;49.234;9.326;2024-01-06T01:52:04;98549.59;;;7.52;80.63
6216;BME280;3141;49.234;9.326;2024-01-06T01:52:46;98549.22;;;7.39;80.97
6216;BME280;3141;49.234;9.326;2024-01-06T01:53:29;98555.47;;;7.38;81.62
6216;BME280;3141;49.234;9.326;2024-01-06T01:54:13;98545.63;;;7.48;81.25
6216;BME280;3141;49.234;9.326;2024-01-06T01:54:56;98556.31;;;7.54;80.82
6216;BME280;3141;49.234;9.326;2024-01-06T01:55:40;98546.94;;;7.60;80.55
6216;BME280;3141;49.234;9.326;2024-01-06T01:56:24;98556.97;;;7.56;80.54
6216;BME280;3141;49.234;9.326;2024-01-06T01:57:07;98555.16;;;7.49;80.72
6216;BME280;3141;49.234;9.326;2024-01-06T01:57:49;98562.06;;;7.42;81.22
6216;BME280;3141;49.234;9.326;2024-01-06T01:58:31;98552.22;;;7.52;81.30
6216;BME280;3141;49.234;9.326;2024-01-06T01:59:17;98555.16;;;7.57;80.88
6216;BME280;3141;49.234;9.326;2024-01-06T02:00:01;98558.63;;;7.57;80.84
6216;BME280;3141;49.234;9.326;2024-01-06T02:00:45;98554.34;;;7.48;80.65
6216;BME280;3141;49.234;9.326;2024-01-06T02:01:28;98555.81;;;7.51;80.80
6216;BME280;3141;49.234;9.326;2024-01-06T02:02:10;98560.25;;;7.50;81.39
6216;BME280;3141;49.234;9.326;2024-01-06T02:02:54;98558.63;;;7.57;80.82
6216;BME280;3141;49.234;9.326;2024-01-06T02:03:36;98557.78;;;7.57;80.63
6216;BME280;3141;49.234;9.326;2024-01-06T02:04:19;98565.03;;;7.55;80.93
6216;BME280;3141;49.234;9.326;2024-01-06T02:05:02;98557.78;;;7.57;80.85
6216;BME280;3141;49.234;9.326;2024-01-06T02:05:44;98552.88;;;7.54;81.12
6216;BME280;3141;49.234;9.326;2024-01-06T02:06:27;98554.34;;;7.48;81.15
6216;BME280;3141;49.234;9.326;2024-01-06T02:07:09;98559.44;;;7.50;81.03
6216;BME280;3141;49.234;9.326;2024-01-06T02:07:51;98552.88;;;7.54;81.17
6216;BME280;3141;49.234;9.326;2024-01-06T02:08:34;98556.63;;;7.51;81.12
6216;BME280;3141;49.234;9.326;2024-01-06T02:09:16;98555.66;;;7.52;81.04
6216;BME280;3141;49.234;9.326;2024-01-06T02:09:58;98552.53;;;7.57;81.23
6216;BME280;3141;49.234;9.326;2024-01-06T02:10:41;98550.91;;;7.56;80.94
6216;BME280;3141;49.234;9.326;2024-01-06T02:11:23;98554.84;;;7.68;80.53
6216;BME280;3141;49.234;9.326;2024-01-06T02:12:06;98560.91;;;7.68;80.36
6216;BME280;3141;49.234;9.326;2024-01-06T02:12:49;98560.59;;;7.71;80.11
6216;BME280;3141;49.234;9.326;2024-01-06T02:13:37;98555.47;;;7.70;80.14
6216;BME280;3141;49.234;9.326;2024-01-06T02:14:19;98561.06;;;7.67;79.97
6216;BME280;3141;49.234;9.326;2024-01-06T02:15:02;98554.19;;;7.66;79.96
6216;BME280;3141;49.234;9.326;2024-01-06T02:15:44;98555.81;;;7.67;79.79
6216;BME280;3141;49.234;9.326;2024-01-06T02:16:27;98559.78;;;7.71;79.86
6216;BME280;3141;49.234;9.326;2024-01-06T02:17:09;98556.16;;;7.72;79.94
6216;BME280;3141;49.234;9.326;2024-01-06T02:17:51;98552.06;;;7.69;79.77
6216;BME280;3141;49.234;9.326;2024-01-06T02:18:33;98559.75;;;7.63;80.07
6216;BME280;3141;49.234;9.326;2024-01-06T02:19:16;98557.78;;;7.65;80.16
6216;BME280;3141;49.234;9.326;2024-01-06T02:19:59;98561.06;;;7.67;80.21
6216;BME280;3141;49.234;9.326;2024-01-06T02:20:43;98559.28;;;7.67;79.92
6216;BME280;3141;49.234;9.326;2024-01-06T02:21:27;98559.09;;;7.69;79.82
6216;BME280;3141;49.234;9.326;2024-01-06T02:22:09;98552.84;;;7.70;79.84
6216;BME280;3141;49.234;9.326;2024-01-06T02:22:52;98562.06;;;7.74;79.74
6216;BME280;3141;49.234;9.326;2024-01-06T02:23:35;98556.16;;;7.64;79.98
6216;BME280;3141;49.234;9.326;2024-01-06T02:24:18;98553.53;;;7.64;79.95
6216;BME280;3141;49.234;9.326;2024-01-06T02:25:00;98559.28;;;7.67;79.88
6216;BME280;3141;49.234;9.326;2024-01-06T02:25:43;98561.59;;;7.62;79.87
6216;BME280;3141;49.234;9.326;2024-01-06T02:26:25;98554.66;;;7.61;80.14
6216;BME280;3141;49.234;9.326;2024-01-06T02:27:07;98556.63;;;7.59;80.18
6216;BME280;3141;49.234;9.326;2024-01-06T02:27:50;98551.88;;;7.63;80.17
6216;BME280;3141;49.234;9.326;2024-01-06T02:28:32;98550.72;;;7.65;80.16
6216;BME280;3141;49.234;9.326;2024-01-06T02:29:14;98562.72;;;7.60;80.40
6216;BME280;3141;49.234;9.326;2024-01-06T02:29:56;98553.34;;;7.65;80.22
6216;BME280;3141;49.234;9.326;2024-01-06T02:30:39;98554.03;;;7.67;80.18
6216;BME280;3141;49.234;9.326;2024-01-06T02:31:21;98560.91;;;7.68;80.06
6216;BME280;3141;49.234;9.326;2024-01-06T02:32:04;98557.16;;;7.71;79.78
6216;BME280;3141;49.234;9.326;2024-01-06T02:32:46;98560.09;;;7.68;79.87
6216;BME280;3141;49.234;9.326;2024-01-06T02:33:29;98560.75;;;7.62;80.08
6216;BME280;3141;49.234;9.326;2024-01-06T02:34:11;98558.78;;;7.64;80.21
6216;BME280;3141;49.234;9.326;2024-01-06T02:34:53;98563.38;;;7.62;80.26
6216;BME280;3141;49.234;9.326;2024-01-06T02:35:36;98559.44;;;7.58;80.57
6216;BME280;3141;49.234;9.326;2024-01-06T02:36:18;98564.38;;;7.61;80.39
6216;BME280;3141;49.234;9.326;2024-01-06T02:37:00;98560.41;;;7.65;80.57
6216;BME280;3141;49.234;9.326;2024-01-06T02:37:43;98565.69;;;7.65;80.08
6216;BME280;3141;49.234;9.326;2024-01-06T02:38:25;98566.34;;;7.67;80.12
6216;BME280;3141;49.234;9.326;2024-01-06T02:39:07;98563.38;;;7.70;79.86
6216;BME280;3141;49.234;9.326;2024-01-06T02:39:52;98567.16;;;7.67;79.91
6216;BME280;3141;49.234;9.326;2024-01-06T02:40:34;98563.72;;;7.67;79.83
6216;BME280;3141;49.234;9.326;2024-01-06T02:41:17;98564.19;;;7.70;79.75
6216;BME280;3141;49.234;9.326;2024-01-06T02:41:59;98568.63;;;7.70;79.61
6216;BME280;3141;49.234;9.326;2024-01-06T02:42:41;98574.88;;;7.69;79.83
6216;BME280;3141;49.234;9.326;2024-01-06T02:43:24;98572.25;;;7.69;79.66
6216;BME280;3141;49.234;9.326;2024-01-06T02:44:06;98567.34;;;7.66;79.68
6216;BME280;3141;49.234;9.326;2024-01-06T02:44:48;98565.69;;;7.65;79.81
6216;BME280;3141;49.234;9.326;2024-01-06T02:45:31;98570.63;;;7.68;79.59
6216;BME280;3141;49.234;9.326;2024-01-06T02:46:13;98570.94;;;7.65;79.80
6216;BME280;3141;49.234;9.326;2024-01-06T02:46:55;98568.47;;;7.63;79.74
6216;BME280;3141;49.234;9.326;2024-01-06T02:47:37;98572.91;;;7.63;79.88
6216;BME280;3141;49.234;9.326;2024-01-06T02:48:20;98566.81;;;7.54;79.91
6216;BME280;3141;49.234;9.326;2024-01-06T02:49:02;98570.13;;;7.48;80.46
6216;BME280;3141;49.234;9.326;2024-01-06T02:49:44;98575.38;;;7.48;80.45
6216;BME280;3141;49.234;9.326;2024-01-06T02:50:27;98579.00;;;7.55;80.32
6216;BME280;3141;49.234;9.326;2024-01-06T02:51:11;98575.03;;;7.59;80.09
6216;BME280;3141;49.234;9.326;2024-01-06T02:51:53;98582.13;;;7.59;80.38
6216;BME280;3141;49.234;9.326;2024-01-06T02:52:36;98581.97;;;7.52;80.63
6216;BME280;3141;49.234;9.326;2024-01-06T02:53:18;98583.44;;;7.47;81.16
6216;BME280;3141;49.234;9.326;2024-01-06T02:54:00;98584.25;;;7.55;80.88
6216;BME280;3141;49.234;9.326;2024-01-06T02:54:43;98586.38;;;7.52;81.01
6216;BME280;3141;49.234;9.326;2024-01-06T02:55:25;98588.69;;;7.55;80.33
6216;BME280;3141;49.234;9.326;2024-01-06T02:56:11;98588.84;;;7.45;80.84
6216;BME280;3141;49.234;9.326;2024-01-06T02:56:54;98592.28;;;7.46;80.96
6216;BME280;3141;49.234;9.326;2024-01-06T02:57:37;98590.97;;;7.42;80.79
6216;BME280;3141;49.234;9.326;2024-01-06T02:58:19;98590.97;;;7.42;81.03
6216;BME280;3141;49.234;9.326;2024-01-06T02:59:02;98583.72;;;7.36;81.37
6216;BME280;3141;49.234;9.326;2024-01-06T02:59:44;98592.06;;;7.23;82.00
6216;BME280;3141;49.234;9.326;2024-01-06T03:00:26;98591.78;;;7.26;81.75
6216;BME280;3141;49.234;9.326;2024-01-06T03:01:11;98587.31;;;7.27;81.90
6216;BME280;3141;49.234;9.326;2024-01-06T03:01:53;98588.94;;;7.20;82.14
6216;BME280;3141;49.234;9.326;2024-01-06T03:02:35;98593.09;;;7.30;81.89
6216;BME280;3141;49.234;9.326;2024-01-06T03:03:19;98596.03;;;7.27;81.74
6216;BME280;3141;49.234;9.326;2024-01-06T03:04:01;98592.78;;;7.33;81.70
6216;BME280;3141;49.234;9.326;2024-01-06T03:04:44;98591.13;;;7.32;81.75
6216;BME280;3141;49.234;9.326;2024-01-06T03:05:26;98590.94;;;7.34;81.90
6216;BME280;3141;49.234;9.326;2024-01-06T03:06:08;98597.19;;;7.33;81.92
6216;BME280;3141;49.234;9.326;2024-01-06T03:06:51;98595.91;;;7.37;81.58
6216;BME280;3141;49.234;9.326;2024-01-06T03:07:35;98600.00;;;7.31;81.66
6216;BME280;3141;49.234;9.326;2024-01-06T03:08:17;98598.16;;;7.32;81.99
6216;BME280;3141;49.234;9.326;2024-01-06T03:09:00;98600.16;;;7.30;81.56
6216;BME280;3141;49.234;9.326;2024-01-06T03:09:42;98592.91;;;7.32;81.85
6216;BME280;3141;49.234;9.326;2024-01-06T03:10:24;98602.78;;;7.30;81.45
6216;BME280;3141;49.234;9.326;2024-01-06T03:11:07;98596.53;;;7.31;81.36
6216;BME280;3141;49.234;9.326;2024-01-06T03:11:49;98601.28;;;7.27;81.57
6216;BME280;3141;49.234;9.326;2024-01-06T03:12:31;98601.13;;;7.29;81.82
6216;BME280;3141;49.234;9.326;2024-01-06T03:13:14;98596.88;;;7.28;81.58
6216;BME280;3141;49.234;9.326;2024-01-06T03:13:56;98597.53;;;7.30;81.82
6216;BME280;3141;49.234;9.326;2024-01-06T03:14:38;98597.19;;;7.33;81.27
6216;BME280;3141;49.234;9.326;2024-01-06T03:15:21;98600.81;;;7.32;81.31
6216;BME280;3141;49.234;9.326;2024-01-06T03:16:04;98600.78;;;7.24;81.94
6216;BME280;3141;49.234;9.326;2024-01-06T03:16:47;98598.16;;;7.24;81.76
6216;BME280;3141;49.234;9.326;2024-01-06T03:17:29;98600.63;;;7.25;81.82
6216;BME280;3141;49.234;9.326;2024-01-06T03:18:12;98590.78;;;7.19;82.06
6216;BME280;3141;49.234;9.326;2024-01-06T03:18:54;98600.28;;;7.20;81.84
6216;BME280;3141;49.234;9.326;2024-01-06T03:19:36;98597.81;;;7.19;81.85
6216;BME280;3141;49.234;9.326;2024-01-06T03:20:19;98596.66;;;7.13;82.01
6216;BME280;3141;49.234;9.326;2024-01-06T03:21:01;98594.69;;;7.15;81.98
6216;BME280;3141;49.234;9.326;2024-01-06T03:21:43;98591.56;;;7.12;82.19
6216;BME280;3141;49.234;9.326;2024-01-06T03:22:26;98589.44;;;7.15;81.91
6216;BME280;3141;49.234;9.326;2024-01-06T03:23:08;98585.63;;;7.10;82.13
6216;BME280;3141;49.234;9.326;2024-01-06T03:23:50;98590.91;;;7.10;82.18
6216;BME280;3141;49.234;9.326;2024-01-06T03:24:33;98588.78;;;7.13;82.01
6216;BME280;3141;49.234;9.326;2024-01-06T03:25:15;98593.22;;;7.13;81.71
6216;BME280;3141;49.234;9.326;2024-01-06T03:25:57;98588.31;;;7.18;81.58
6216;BME280;3141;49.234;9.326;2024-01-06T03:26:40;98591.25;;;7.15;82.02
6216;BME280;3141;49.234;9.326;2024-01-06T03:27:22;98591.09;;;7.16;81.78
6216;BME280;3141;49.234;9.326;2024-01-06T03:28:04;98587.13;;;7.12;81.75
6216;BME280;3141;49.234;9.326;2024-01-06T03:28:49;98595.19;;;7.19;81.62
6216;BME280;3141;49.234;9.326;2024-01-06T03:29:32;98595.53;;;7.16;81.94
6216;BME280;3141;49.234;9.326;2024-01-06T03:30:14;98599.00;;;7.16;81.93
6216;BME280;3141;49.234;9.326;2024-01-06T03:30:56;98595.03;;;7.12;81.66
6216;BME280;3141;49.234;9.326;2024-01-06T03:31:42;98599.09;;;7.07;82.18
6216;BME280;3141;49.234;9.326;2024-01-06T03:32:25;98601.09;;;7.13;82.41
6216;BME280;3141;49.234;9.326;2024-01-06T03:33:07;98597.50;;;7.14;82.23
6216;BME280;3141;49.234;9.326;2024-01-06T03:33:49;98606.50;;;7.11;82.08
6216;BME280;3141;49.234;9.326;2024-01-06T03:34:32;98605.03;;;7.09;82.10
6216;BME280;3141;49.234;9.326;2024-01-06T03:35:14;98608.31;;;7.11;82.05
6216;BME280;3141;49.234;9.326;2024-01-06T03:35:57;98603.25;;;7.17;81.51
6216;BME280;3141;49.234;9.326;2024-01-06T03:36:40;98600.44;;;7.19;81.38
6216;BME280;3141;49.234;9.326;2024-01-06T03:37:22;98596.53;;;7.23;81.51
6216;BME280;3141;49.234;9.326;2024-01-06T03:38:05;98596.53;;;7.23;81.15
6216;BME280;3141;49.234;9.326;2024-01-06T03:38:47;98595.53;;;7.24;81.06
6216;BME280;3141;49.234;9.326;2024-01-06T03:39:29;98598.84;;;7.26;80.94
6216;BME280;3141;49.234;9.326;2024-01-06T03:40:12;98608.50;;;7.25;81.06
6216;BME280;3141;49.234;9.326;2024-01-06T03:40:54;98602.25;;;7.18;80.75
6216;BME280;3141;49.234;9.326;2024-01-06T03:41:36;98608.69;;;7.24;80.87
6216;BME280;3141;49.234;9.326;2024-01-06T03:42:19;98599.31;;;7.21;80.56
6216;BME280;3141;49.234;9.326;2024-01-06T03:43:02;98606.88;;;7.16;81.21
6216;BME280;3141;49.234;9.326;2024-01-06T03:43:44;98601.13;;;7.21;81.19
6216;BME280;3141;49.234;9.326;2024-01-06T03:44:26;98603.75;;;7.21;81.35
6216;BME280;3141;49.234;9.326;2024-01-06T03:45:12;98601.47;;;7.26;81.06
6216;BME280;3141;49.234;9.326;2024-01-06T03:45:54;98607.88;;;7.31;80.91
6216;BME280;3141;49.234;9.326;2024-01-06T03:46:38;98602.47;;;7.33;80.72
6216;BME280;3141;49.234;9.326;2024-01-06T03:47:21;98612.16;;;7.32;80.95
6216;BME280;3141;49.234;9.326;2024-01-06T03:48:03;98603.94;;;7.35;80.58
6216;BME280;3141;49.234;9.326;2024-01-06T03:48:45;98611.81;;;7.35;80.60
6216;BME280;3141;49.234;9.326;2024-01-06T03:49:28;98610.03;;;7.36;80.82
6216;BME280;3141;49.234;9.326;2024-01-06T03:50:10;98603.28;;;7.33;80.97
6216;BME280;3141;49.234;9.326;2024-01-06T03:50:52;98607.72;;;7.33;81.15
6216;BME280;3141;49.234;9.326;2024-01-06T03:51:35;98608.06;;;7.30;81.17
6216;BME280;3141;49.234;9.326;2024-01-06T03:52:17;98609.19;;;7.35;81.13
6216;BME280;3141;49.234;9.326;2024-01-06T03:52:59;98608.06;;;7.38;81.03
6216;BME280;3141;49.234;9.326;2024-01-06T03:53:42;98611.50;;;7.38;80.90
6216;BME280;3141;49.234;9.326;2024-01-06T03:54:24;98605.44;;;7.38;80.53